sensor_id;sensor_type;location;lat;lon;timestamp;pressure;altitude;pressure_sealevel;temperature;humidity
26697;BME280;14312;52.614;13.496;2022-11-28T00:01:54;101466.59;;;7.43;71.93
26697;BME280;14312;52.614;13.496;2022-11-28T00:04:40;101456.38;;;7.40;71.77
26697;BME280;14312;52.614;13.496;2022-11-28T00:07:26;101457.41;;;7.39;71.96
26697;BME280;14312;52.614;13.496;2022-11-28T00:10:13;101461.09;;;7.38;72.02
26697;BME280;14312;52.614;13.496;2022-11-28T00:12:58;101447.84;;;7.38;71.83
26697;BME280;14312;52.614;13.496;2022-11-28T00:15:44;101447.22;;;7.36;71.98
26697;BME280;14312;52.614;13.496;2022-11-28T00:18:39;101445.56;;;7.35;72.14
26697;BME280;14312;52.614;13.496;2022-11-28T00:21:26;101441.28;;;7.34;71.98
26697;BME280;14312;52.614;13.496;2022-11-28T00:24:12;101437.63;;;7.35;72.12
26697;BME280;14312;52.614;13.496;2022-11-28T00:26:58;101434.34;;;7.33;72.31
26697;BME280;14312;52.614;13.496;2022-11-28T00:29:44;101436.97;;;7.33;71.96
26697;BME280;14312;52.614;13.496;2022-11-28T00:32:30;101429.84;;;7.34;72.27
26697;BME280;14312;52.614;13.496;2022-11-28T00:35:16;101429.03;;;7.33;72.20
26697;BME280;14312;52.614;13.496;2022-11-28T00:38:02;101424.75;;;7.32;72.26
26697;BME280;14312;52.614;13.496;2022-11-28T00:40:57;101416.19;;;7.30;72.15
26697;BME280;14312;52.614;13.496;2022-11-28T00:43:44;101420.47;;;7.31;72.20
26697;BME280;14312;52.614;13.496;2022-11-28T00:46:30;101416.19;;;7.30;72.10
26697;BME280;14312;52.614;13.496;2022-11-28T00:49:16;101413.53;;;7.30;72.39
26697;BME280;14312;52.614;13.496;2022-11-28T00:52:03;101422.50;;;7.29;72.24
26697;BME280;14312;52.614;13.496;2022-11-28T00:54:49;101411.09;;;7.29;72.27
26697;BME280;14312;52.614;13.496;2022-11-28T00:57:35;101415.56;;;7.28;72.05
26697;BME280;14312;52.614;13.496;2022-11-28T01:00:22;101413.94;;;7.27;72.37
26697;BME280;14312;52.614;13.496;2022-11-28T01:03:09;101411.28;;;7.27;71.97
26697;BME280;14312;52.614;13.496;2022-11-28T01:05:55;101421.06;;;7.27;72.00
26697;BME280;14312;52.614;13.496;2022-11-28T01:08:41;101411.69;;;7.24;72.14
26697;BME280;14312;52.614;13.496;2022-11-28T01:11:28;101411.47;;;7.26;72.04
26697;BME280;14312;52.614;13.496;2022-11-28T01:14:15;101407.00;;;7.26;72.22
26697;BME280;14312;52.614;13.496;2022-11-28T01:17:01;101399.03;;;7.26;72.07
26697;BME280;14312;52.614;13.496;2022-11-28T01:19:47;101397.63;;;7.24;72.23
26697;BME280;14312;52.614;13.496;2022-11-28T01:22:34;101390.25;;;7.26;71.85
26697;BME280;14312;52.614;13.496;2022-11-28T01:25:20;101377.22;;;7.24;71.84
26697;BME280;14312;52.614;13.496;2022-11-28T01:28:06;101376.41;;;7.24;71.89
26697;BME280;14312;52.614;13.496;2022-11-28T01:30:52;101375.59;;;7.23;72.16
26697;BME280;14312;52.614;13.496;2022-11-28T01:33:38;101374.78;;;7.23;72.31
26697;BME280;14312;52.614;13.496;2022-11-28T01:36:25;101371.50;;;7.21;72.03
26697;BME280;14312;52.614;13.496;2022-11-28T01:39:11;101373.97;;;7.22;71.94
26697;BME280;14312;52.614;13.496;2022-11-28T01:42:00;101370.69;;;7.20;71.98
26697;BME280;14312;52.614;13.496;2022-11-28T01:47:34;101351.50;;;7.18;72.02
26697;BME280;14312;52.614;13.496;2022-11-28T01:50:21;101359.25;;;7.20;71.91
26697;BME280;14312;52.614;13.496;2022-11-28T01:53:09;101355.78;;;7.19;72.45
26697;BME280;14312;52.614;13.496;2022-11-28T01:56:05;101349.47;;;7.20;72.35
26697;BME280;14312;52.614;13.496;2022-11-28T01:58:59;101348.47;;;7.21;72.32
26697;BME280;14312;52.614;13.496;2022-11-28T02:01:47;101344.19;;;7.20;72.04
26697;BME280;14312;52.614;13.496;2022-11-28T02:04:33;101342.16;;;7.22;72.33
26697;BME280;14312;52.614;13.496;2022-11-28T02:07:21;101351.13;;;7.21;72.37
26697;BME280;14312;52.614;13.496;2022-11-28T02:10:10;101342.16;;;7.22;72.02
26697;BME280;14312;52.614;13.496;2022-11-28T02:22:36;101325.84;;;7.25;71.99
26697;BME280;14312;52.614;13.496;2022-11-28T02:29:19;101324.22;;;7.24;72.08
26697;BME280;14312;52.614;13.496;2022-11-28T02:41:01;101303.81;;;7.25;72.17
26697;BME280;14312;52.614;13.496;2022-11-28T02:47:26;101307.91;;;7.27;72.18
26697;BME280;14312;52.614;13.496;2022-11-28T15:08:36;101001.56;;;4.22;83.63
26697;BME280;14312;52.614;13.496;2022-11-28T15:14:26;101004.38;;;5.04;82.29
26697;BME280;14312;52.614;13.496;2022-11-28T15:17:13;101003.56;;;5.38;81.51
26697;BME280;14312;52.614;13.496;2022-11-28T15:20:17;100997.59;;;5.71;79.84
26697;BME280;14312;52.614;13.496;2022-11-28T15:26:26;101009.53;;;6.21;78.70
26697;BME280;14312;52.614;13.496;2022-11-28T15:29:22;101011.59;;;6.39;78.56
26697;BME280;14312;52.614;13.496;2022-11-28T15:32:12;101008.75;;;6.53;77.99
26697;BME280;14312;52.614;13.496;2022-11-28T15:35:03;101008.72;;;6.66;77.38
26697;BME280;14312;52.614;13.496;2022-11-28T15:37:55;101012.38;;;6.79;77.22
26697;BME280;14312;52.614;13.496;2022-11-28T15:40:48;101012.78;;;6.89;76.66
26697;BME280;14312;52.614;13.496;2022-11-28T15:43:36;101011.72;;;6.96;76.57
26697;BME280;14312;52.614;13.496;2022-11-28T15:46:29;101010.69;;;7.04;76.35
26697;BME280;14312;52.614;13.496;2022-11-28T15:49:33;101009.88;;;7.10;75.96
26697;BME280;14312;52.614;13.496;2022-11-28T15:52:19;101012.72;;;7.15;75.94
26697;BME280;14312;52.614;13.496;2022-11-28T15:55:14;101011.47;;;7.18;75.46
26697;BME280;14312;52.614;13.496;2022-11-28T15:58:22;101015.16;;;7.23;74.88
26697;BME280;14312;52.614;13.496;2022-11-28T16:01:20;101007.78;;;7.25;74.94
26697;BME280;14312;52.614;13.496;2022-11-28T16:04:13;101002.88;;;7.29;75.13
26697;BME280;14312;52.614;13.496;2022-11-28T16:07:01;101007.19;;;7.30;75.13
26697;BME280;14312;52.614;13.496;2022-11-28T16:10:00;101012.28;;;7.31;74.55
26697;BME280;14312;52.614;13.496;2022-11-28T16:12:48;101019.19;;;7.32;75.10
26697;BME280;14312;52.614;13.496;2022-11-28T16:15:35;101013.88;;;7.32;74.99
26697;BME280;14312;52.614;13.496;2022-11-28T16:18:24;101016.53;;;7.32;74.66
26697;BME280;14312;52.614;13.496;2022-11-28T16:21:12;101022.44;;;7.34;74.58
26697;BME280;14312;52.614;13.496;2022-11-28T16:24:00;101027.75;;;7.34;74.35
26697;BME280;14312;52.614;13.496;2022-11-28T16:26:57;101025.28;;;7.33;74.01
26697;BME280;14312;52.614;13.496;2022-11-28T16:29:45;101018.16;;;7.33;74.51
26697;BME280;14312;52.614;13.496;2022-11-28T16:32:40;101019.19;;;7.32;74.00
26697;BME280;14312;52.614;13.496;2022-11-28T16:38:21;101028.75;;;7.33;74.51
26697;BME280;14312;52.614;13.496;2022-11-28T16:44:13;101027.56;;;7.29;74.11
26697;BME280;14312;52.614;13.496;2022-11-28T16:47:00;101018.78;;;7.29;73.92
26697;BME280;14312;52.614;13.496;2022-11-28T16:52:55;101018.38;;;7.25;74.18
26697;BME280;14312;52.614;13.496;2022-11-28T16:55:45;101023.69;;;7.25;74.16
26697;BME280;14312;52.614;13.496;2022-11-28T16:58:31;101020.44;;;7.23;73.76
26697;BME280;14312;52.614;13.496;2022-11-28T17:01:20;101020.44;;;7.23;74.02
26697;BME280;14312;52.614;13.496;2022-11-28T17:04:18;101026.16;;;7.20;73.54
26697;BME280;14312;52.614;13.496;2022-11-28T17:07:05;101026.59;;;7.17;73.78
26697;BME280;14312;52.614;13.496;2022-11-28T17:09:53;101022.31;;;7.16;73.87
26697;BME280;14312;52.614;13.496;2022-11-28T17:12:42;101029.44;;;7.16;73.84
26697;BME280;14312;52.614;13.496;2022-11-28T17:15:29;101032.28;;;7.14;73.72
26697;BME280;14312;52.614;13.496;2022-11-28T17:18:14;101037.59;;;7.14;74.18
26697;BME280;14312;52.614;13.496;2022-11-28T17:21:00;101034.31;;;7.12;74.08
26697;BME280;14312;52.614;13.496;2022-11-28T17:23:46;101024.53;;;7.13;74.02
26697;BME280;14312;52.614;13.496;2022-11-28T17:26:37;101020.06;;;7.13;74.05
26697;BME280;14312;52.614;13.496;2022-11-28T17:29:24;101013.94;;;7.13;73.88
26697;BME280;14312;52.614;13.496;2022-11-28T17:32:11;101018.41;;;7.12;73.89
26697;BME280;14312;52.614;13.496;2022-11-28T17:34:58;101017.59;;;7.12;73.94
26697;BME280;14312;52.614;13.496;2022-11-28T17:37:48;101034.31;;;7.12;73.82
26697;BME280;14312;52.614;13.496;2022-11-28T17:40:33;101033.50;;;7.12;73.87
26697;BME280;14312;52.614;13.496;2022-11-28T17:43:27;101022.09;;;7.11;73.71
26697;BME280;14312;52.614;13.496;2022-11-28T17:46:13;101021.28;;;7.11;73.76
26697;BME280;14312;52.614;13.496;2022-11-28T17:48:59;101027.38;;;7.11;73.68
26697;BME280;14312;52.614;13.496;2022-11-28T17:51:49;101034.31;;;7.12;73.55
26697;BME280;14312;52.614;13.496;2022-11-28T17:54:34;101029.84;;;7.13;73.75
26697;BME280;14312;52.614;13.496;2022-11-28T17:57:20;101033.31;;;7.13;73.71
26697;BME280;14312;52.614;13.496;2022-11-28T18:00:14;101023.53;;;7.14;73.66
26697;BME280;14312;52.614;13.496;2022-11-28T18:03:01;101021.69;;;7.14;73.52
26697;BME280;14312;52.614;13.496;2022-11-28T18:05:48;101023.31;;;7.15;73.78
26697;BME280;14312;52.614;13.496;2022-11-28T18:08:37;101011.09;;;7.14;73.78
26697;BME280;14312;52.614;13.496;2022-11-28T18:11:26;101016.38;;;7.14;73.58
26697;BME280;14312;52.614;13.496;2022-11-28T18:14:12;100998.84;;;7.13;73.47
26697;BME280;14312;52.614;13.496;2022-11-28T18:16:58;101003.53;;;7.11;73.17
26697;BME280;14312;52.614;13.496;2022-11-28T18:19:49;101008.84;;;7.11;73.25
26697;BME280;14312;52.614;13.496;2022-11-28T18:22:39;101015.19;;;7.10;73.42
26697;BME280;14312;52.614;13.496;2022-11-28T18:25:26;101018.84;;;7.09;73.46
26697;BME280;14312;52.614;13.496;2022-11-28T18:28:13;101027.81;;;7.08;73.54
26697;BME280;14312;52.614;13.496;2022-11-28T18:30:59;101021.69;;;7.07;73.42
26697;BME280;14312;52.614;13.496;2022-11-28T18:33:45;101013.97;;;7.06;73.54
26697;BME280;14312;52.614;13.496;2022-11-28T18:36:33;101020.88;;;7.07;73.55
26697;BME280;14312;52.614;13.496;2022-11-28T18:39:19;101011.31;;;7.06;73.54
26697;BME280;14312;52.614;13.496;2022-11-28T18:42:06;101011.09;;;7.07;73.20
26697;BME280;14312;52.614;13.496;2022-11-28T18:44:53;101027.81;;;7.08;73.23
26697;BME280;14312;52.614;13.496;2022-11-28T18:47:38;101023.53;;;7.07;73.50
26697;BME280;14312;52.614;13.496;2022-11-28T18:50:24;101014.78;;;7.06;73.25
